sensor_id;sensor_type;location;lat;lon;timestamp;temperature;humidity
30134;DHT22;16946;49.984;10.672;2024-01-15T00:00:00;-2.30;99.90
30134;DHT22;16946;49.984;10.672;2024-01-15T00:00:31;-2.20;99.90
30134;DHT22;16946;49.984;10.672;2024-01-15T00:01:02;-2.20;99.90
30134;DHT22;16946;49.984;10.672;2024-01-15T00:01:33;-2.10;99.90
30134;DHT22;16946;49.984;10.672;2024-01-15T00:02:04;-2.10;99.90
30134;DHT22;16946;49.984;10.672;2024-01-15T00:02:36;-2.10;99.90
30134;DHT22;16946;49.984;10.672;2024-01-15T00:03:06;-2.10;99.90
30134;DHT22;16946;49.984;10.672;2024-01-15T00:03:37;-2.10;99.90
30134;DHT22;16946;49.984;10.672;2024-01-15T00:04:07;-2.10;99.90
30134;DHT22;16946;49.984;10.672;2024-01-15T00:04:39;-2.20;99.90
30134;DHT22;16946;49.984;10.672;2024-01-15T00:05:10;-2.20;99.90
30134;DHT22;16946;49.984;10.672;2024-01-15T00:05:40;-2.20;99.90
30134;DHT22;16946;49.984;10.672;2024-01-15T00:06:11;-2.20;99.90
30134;DHT22;16946;49.984;10.672;2024-01-15T00:06:41;-2.20;99.90
30134;DHT22;16946;49.984;10.672;2024-01-15T00:07:12;-2.20;99.90
30134;DHT22;16946;49.984;10.672;2024-01-15T00:07:42;-2.20;99.90
30134;DHT22;16946;49.984;10.672;2024-01-15T00:08:13;-2.20;99.90
30134;DHT22;16946;49.984;10.672;2024-01-15T00:08:43;-2.20;99.90
30134;DHT22;16946;49.984;10.672;2024-01-15T00:09:14;-2.30;99.90
30134;DHT22;16946;49.984;10.672;2024-01-15T00:09:45;-2.30;99.90
30134;DHT22;16946;49.984;10.672;2024-01-15T00:10:15;-2.20;99.90
30134;DHT22;16946;49.984;10.672;2024-01-15T00:10:46;-2.20;99.90
30134;DHT22;16946;49.984;10.672;2024-01-15T00:11:16;-2.20;99.90
30134;DHT22;16946;49.984;10.672;2024-01-15T00:11:47;-2.10;99.90
30134;DHT22;16946;49.984;10.672;2024-01-15T00:12:17;-2.10;99.90
30134;DHT22;16946;49.984;10.672;2024-01-15T00:12:48;-2.10;99.90
30134;DHT22;16946;49.984;10.672;2024-01-15T00:13:18;-2.00;99.90
30134;DHT22;16946;49.984;10.672;2024-01-15T00:13:49;-2.00;99.90
30134;DHT22;16946;49.984;10.672;2024-01-15T00:14:19;-2.00;99.90
30134;DHT22;16946;49.984;10.672;2024-01-15T00:14:50;-1.90;99.90
30134;DHT22;16946;49.984;10.672;2024-01-15T00:15:21;-1.90;99.90
30134;DHT22;16946;49.984;10.672;2024-01-15T00:15:52;-2.00;99.90
30134;DHT22;16946;49.984;10.672;2024-01-15T00:16:23;-2.00;99.90
30134;DHT22;16946;49.984;10.672;2024-01-15T00:16:53;-2.00;99.90
30134;DHT22;16946;49.984;10.672;2024-01-15T00:17:25;-2.00;99.90
30134;DHT22;16946;49.984;10.672;2024-01-15T00:17:56;-1.90;99.90
30134;DHT22;16946;49.984;10.672;2024-01-15T00:18:26;-1.90;99.90
30134;DHT22;16946;49.984;10.672;2024-01-15T00:18:57;-2.00;99.90
30134;DHT22;16946;49.984;10.672;2024-01-15T00:19:27;-2.00;99.90
30134;DHT22;16946;49.984;10.672;2024-01-15T00:19:58;-2.10;99.90
30134;DHT22;16946;49.984;10.672;2024-01-15T00:20:28;-2.10;99.90
30134;DHT22;16946;49.984;10.672;2024-01-15T00:20:59;-2.10;99.90
30134;DHT22;16946;49.984;10.672;2024-01-15T00:21:29;-2.10;99.90
30134;DHT22;16946;49.984;10.672;2024-01-15T00:22:00;-2.10;99.90
30134;DHT22;16946;49.984;10.672;2024-01-15T00:22:30;-2.10;99.90
30134;DHT22;16946;49.984;10.672;2024-01-15T00:23:02;-2.10;99.90
30134;DHT22;16946;49.984;10.672;2024-01-15T00:23:32;-2.10;99.90
30134;DHT22;16946;49.984;10.672;2024-01-15T00:24:03;-2.10;99.90
30134;DHT22;16946;49.984;10.672;2024-01-15T00:24:33;-2.10;99.90
30134;DHT22;16946;49.984;10.672;2024-01-15T00:25:04;-2.10;99.90
30134;DHT22;16946;49.984;10.672;2024-01-15T00:25:35;-2.00;99.90
30134;DHT22;16946;49.984;10.672;2024-01-15T00:26:05;-2.00;99.90
30134;DHT22;16946;49.984;10.672;2024-01-15T00:26:36;-2.00;99.90
30134;DHT22;16946;49.984;10.672;2024-01-15T00:27:07;-2.00;99.90
30134;DHT22;16946;49.984;10.672;2024-01-15T00:27:37;-2.00;99.90
30134;DHT22;16946;49.984;10.672;2024-01-15T00:28:08;-2.00;99.90
30134;DHT22;16946;49.984;10.672;2024-01-15T00:28:38;-2.10;99.90
30134;DHT22;16946;49.984;10.672;2024-01-15T00:29:09;-2.00;99.90
30134;DHT22;16946;49.984;10.672;2024-01-15T00:29:40;-2.10;99.90
30134;DHT22;16946;49.984;10.672;2024-01-15T00:30:11;-2.10;99.90
30134;DHT22;16946;49.984;10.672;2024-01-15T00:30:41;-2.10;99.90
30134;DHT22;16946;49.984;10.672;2024-01-15T00:31:12;-2.10;99.90
30134;DHT22;16946;49.984;10.672;2024-01-15T00:31:42;-2.10;99.90
30134;DHT22;16946;49.984;10.672;2024-01-15T00:32:13;-2.10;99.90
30134;DHT22;16946;49.984;10.672;2024-01-15T00:32:43;-2.10;99.90
30134;DHT22;16946;49.984;10.672;2024-01-15T00:33:14;-2.10;99.90
30134;DHT22;16946;49.984;10.672;2024-01-15T00:33:45;-2.20;99.90
30134;DHT22;16946;49.984;10.672;2024-01-15T00:34:16;-2.20;99.90
30134;DHT22;16946;49.984;10.672;2024-01-15T00:34:46;-2.10;99.90
30134;DHT22;16946;49.984;10.672;2024-01-15T00:35:17;-2.20;99.90
30134;DHT22;16946;49.984;10.672;2024-01-15T00:35:47;-2.10;99.90
30134;DHT22;16946;49.984;10.672;2024-01-15T00:36:18;-2.10;99.90
30134;DHT22;16946;49.984;10.672;2024-01-15T00:36:48;-2.10;99.90
30134;DHT22;16946;49.984;10.672;2024-01-15T00:37:19;-2.10;99.90
30134;DHT22;16946;49.984;10.672;2024-01-15T00:37:49;-2.10;99.90
30134;DHT22;16946;49.984;10.672;2024-01-15T00:38:20;-2.00;99.90
30134;DHT22;16946;49.984;10.672;2024-01-15T00:38:51;-2.00;99.90
30134;DHT22;16946;49.984;10.672;2024-01-15T00:39:21;-2.10;99.90
30134;DHT22;16946;49.984;10.672;2024-01-15T00:39:52;-2.10;99.90
30134;DHT22;16946;49.984;10.672;2024-01-15T00:40:22;-2.10;99.90
30134;DHT22;16946;49.984;10.672;2024-01-15T00:40:54;-2.10;99.90
30134;DHT22;16946;49.984;10.672;2024-01-15T00:41:24;-2.10;99.90
30134;DHT22;16946;49.984;10.672;2024-01-15T00:41:55;-2.10;99.90
30134;DHT22;16946;49.984;10.672;2024-01-15T00:42:25;-2.10;99.90
30134;DHT22;16946;49.984;10.672;2024-01-15T00:42:56;-2.10;99.90
30134;DHT22;16946;49.984;10.672;2024-01-15T00:43:26;-2.10;99.90
30134;DHT22;16946;49.984;10.672;2024-01-15T00:43:57;-2.10;99.90
30134;DHT22;16946;49.984;10.672;2024-01-15T00:44:27;-2.00;99.90
30134;DHT22;16946;49.984;10.672;2024-01-15T00:44:58;-2.10;99.90
30134;DHT22;16946;49.984;10.672;2024-01-15T00:45:28;-2.00;99.90
30134;DHT22;16946;49.984;10.672;2024-01-15T00:46:02;-2.00;99.90
30134;DHT22;16946;49.984;10.672;2024-01-15T00:46:32;-2.00;99.90
30134;DHT22;16946;49.984;10.672;2024-01-15T00:47:03;-2.00;99.90
30134;DHT22;16946;49.984;10.672;2024-01-15T00:47:34;-2.00;99.90
30134;DHT22;16946;49.984;10.672;2024-01-15T00:48:05;-2.00;99.90
30134;DHT22;16946;49.984;10.672;2024-01-15T00:48:36;-2.00;99.90
30134;DHT22;16946;49.984;10.672;2024-01-15T00:49:06;-2.00;99.90
30134;DHT22;16946;49.984;10.672;2024-01-15T00:49:37;-2.10;99.90
30134;DHT22;16946;49.984;10.672;2024-01-15T00:50:07;-2.10;99.90
30134;DHT22;16946;49.984;10.672;2024-01-15T00:50:38;-2.00;99.90
30134;DHT22;16946;49.984;10.672;2024-01-15T00:51:09;-2.10;99.90
30134;DHT22;16946;49.984;10.672;2024-01-15T00:51:39;-2.10;99.90
30134;DHT22;16946;49.984;10.672;2024-01-15T00:52:10;-2.20;99.90
30134;DHT22;16946;49.984;10.672;2024-01-15T00:52:41;-2.20;99.90
30134;DHT22;16946;49.984;10.672;2024-01-15T00:53:11;-2.20;99.90
30134;DHT22;16946;49.984;10.672;2024-01-15T00:53:42;-2.20;99.90
30134;DHT22;16946;49.984;10.672;2024-01-15T00:54:12;-2.20;99.90
30134;DHT22;16946;49.984;10.672;2024-01-15T00:54:43;-2.20;99.90
30134;DHT22;16946;49.984;10.672;2024-01-15T00:55:14;-2.20;99.90
30134;DHT22;16946;49.984;10.672;2024-01-15T00:55:44;-2.10;99.90
30134;DHT22;16946;49.984;10.672;2024-01-15T00:56:15;-2.10;99.90
30134;DHT22;16946;49.984;10.672;2024-01-15T00:56:45;-2.10;99.90
30134;DHT22;16946;49.984;10.672;2024-01-15T00:57:15;-2.10;99.90
30134;DHT22;16946;49.984;10.672;2024-01-15T00:57:46;-2.10;99.90
30134;DHT22;16946;49.984;10.672;2024-01-15T00:58:17;-2.10;99.90
30134;DHT22;16946;49.984;10.672;2024-01-15T00:58:47;-2.20;99.90
30134;DHT22;16946;49.984;10.672;2024-01-15T00:59:18;-2.20;99.90
30134;DHT22;16946;49.984;10.672;2024-01-15T00:59:48;-2.20;99.90
30134;DHT22;16946;49.984;10.672;2024-01-15T01:00:19;-2.20;99.90
30134;DHT22;16946;49.984;10.672;2024-01-15T01:00:49;-2.20;99.90
30134;DHT22;16946;49.984;10.672;2024-01-15T01:01:20;-2.20;99.90
30134;DHT22;16946;49.984;10.672;2024-01-15T01:01:50;-2.20;99.90
30134;DHT22;16946;49.984;10.672;2024-01-15T01:02:21;-2.20;99.90
30134;DHT22;16946;49.984;10.672;2024-01-15T01:02:51;-2.20;99.90
30134;DHT22;16946;49.984;10.672;2024-01-15T01:03:22;-2.20;99.90
30134;DHT22;16946;49.984;10.672;2024-01-15T01:03:52;-2.20;99.90
30134;DHT22;16946;49.984;10.672;2024-01-15T01:04:23;-2.20;99.90
30134;DHT22;16946;49.984;10.672;2024-01-15T01:04:54;-2.20;99.90
30134;DHT22;16946;49.984;10.672;2024-01-15T01:05:24;-2.20;99.90
30134;DHT22;16946;49.984;10.672;2024-01-15T01:05:55;-2.20;99.90
30134;DHT22;16946;49.984;10.672;2024-01-15T01:06:25;-2.30;99.90
30134;DHT22;16946;49.984;10.672;2024-01-15T01:06:56;-2.30;99.90
30134;DHT22;16946;49.984;10.672;2024-01-15T01:07:26;-2.20;99.90
30134;DHT22;16946;49.984;10.672;2024-01-15T01:07:57;-2.20;99.90
30134;DHT22;16946;49.984;10.672;2024-01-15T01:08:27;-2.20;99.90
30134;DHT22;16946;49.984;10.672;2024-01-15T01:08:58;-2.20;99.90
30134;DHT22;16946;49.984;10.672;2024-01-15T01:09:28;-2.10;99.90
30134;DHT22;16946;49.984;10.672;2024-01-15T01:10:00;-2.10;99.90
30134;DHT22;16946;49.984;10.672;2024-01-15T01:10:31;-2.00;99.90
30134;DHT22;16946;49.984;10.672;2024-01-15T01:11:01;-2.00;99.90
30134;DHT22;16946;49.984;10.672;2024-01-15T01:11:32;-2.00;99.90
30134;DHT22;16946;49.984;10.672;2024-01-15T01:12:02;-2.00;99.90
30134;DHT22;16946;49.984;10.672;2024-01-15T01:12:33;-2.00;99.90
30134;DHT22;16946;49.984;10.672;2024-01-15T01:13:03;-2.00;99.90
30134;DHT22;16946;49.984;10.672;2024-01-15T01:13:34;-2.00;99.90
30134;DHT22;16946;49.984;10.672;2024-01-15T01:14:05;-2.00;99.90
30134;DHT22;16946;49.984;10.672;2024-01-15T01:14:35;-2.00;99.90
30134;DHT22;16946;49.984;10.672;2024-01-15T01:15:06;-2.00;99.90
30134;DHT22;16946;49.984;10.672;2024-01-15T01:15:37;-2.00;99.90
30134;DHT22;16946;49.984;10.672;2024-01-15T01:16:08;-2.00;99.90
30134;DHT22;16946;49.984;10.672;2024-01-15T01:16:39;-1.90;99.90
30134;DHT22;16946;49.984;10.672;2024-01-15T01:17:10;-1.90;99.90
30134;DHT22;16946;49.984;10.672;2024-01-15T01:17:40;-1.90;99.90
30134;DHT22;16946;49.984;10.672;2024-01-15T01:18:11;-1.90;99.90
30134;DHT22;16946;49.984;10.672;2024-01-15T01:18:42;-1.90;99.90
30134;DHT22;16946;49.984;10.672;2024-01-15T01:19:12;-2.00;99.90
30134;DHT22;16946;49.984;10.672;2024-01-15T01:19:43;-2.00;99.90
30134;DHT22;16946;49.984;10.672;2024-01-15T01:20:13;-2.00;99.90
30134;DHT22;16946;49.984;10.672;2024-01-15T01:20:45;-2.00;99.90
30134;DHT22;16946;49.984;10.672;2024-01-15T01:21:16;-2.00;99.90
30134;DHT22;16946;49.984;10.672;2024-01-15T01:21:47;-2.00;99.90
30134;DHT22;16946;49.984;10.672;2024-01-15T01:22:17;-2.00;99.90
30134;DHT22;16946;49.984;10.672;2024-01-15T01:22:48;-2.00;99.90
30134;DHT22;16946;49.984;10.672;2024-01-15T01:23:18;-2.10;99.90
30134;DHT22;16946;49.984;10.672;2024-01-15T01:23:49;-2.00;99.90
30134;DHT22;16946;49.984;10.672;2024-01-15T01:24:19;-2.00;99.90
30134;DHT22;16946;49.984;10.672;2024-01-15T01:24:50;-2.00;99.90
30134;DHT22;16946;49.984;10.672;2024-01-15T01:25:20;-1.90;99.90
30134;DHT22;16946;49.984;10.672;2024-01-15T01:25:51;-1.90;99.90
30134;DHT22;16946;49.984;10.672;2024-01-15T01:26:21;-1.90;99.90
30134;DHT22;16946;49.984;10.672;2024-01-15T01:26:52;-1.90;99.90
30134;DHT22;16946;49.984;10.672;2024-01-15T01:27:22;-1.80;99.90
30134;DHT22;16946;49.984;10.672;2024-01-15T01:27:53;-1.80;99.90
30134;DHT22;16946;49.984;10.672;2024-01-15T01:28:23;-1.80;99.90
30134;DHT22;16946;49.984;10.672;2024-01-15T01:28:54;-1.80;99.90
30134;DHT22;16946;49.984;10.672;2024-01-15T01:29:24;-1.70;99.90
30134;DHT22;16946;49.984;10.672;2024-01-15T01:29:56;-1.70;99.90
30134;DHT22;16946;49.984;10.672;2024-01-15T01:30:27;-1.70;99.90
30134;DHT22;16946;49.984;10.672;2024-01-15T01:30:57;-1.70;99.90
30134;DHT22;16946;49.984;10.672;2024-01-15T01:31:28;-1.60;99.90
30134;DHT22;16946;49.984;10.672;2024-01-15T01:31:58;-1.60;99.90
30134;DHT22;16946;49.984;10.672;2024-01-15T01:32:29;-1.60;99.90
30134;DHT22;16946;49.984;10.672;2024-01-15T01:32:59;-1.60;99.90
30134;DHT22;16946;49.984;10.672;2024-01-15T01:33:30;-1.60;99.90
30134;DHT22;16946;49.984;10.672;2024-01-15T01:34:00;-1.60;99.90
30134;DHT22;16946;49.984;10.672;2024-01-15T01:34:33;-1.60;99.90
30134;DHT22;16946;49.984;10.672;2024-01-15T01:35:10;-1.60;99.90
30134;DHT22;16946;49.984;10.672;2024-01-15T01:35:40;-1.60;99.90
30134;DHT22;16946;49.984;10.672;2024-01-15T01:36:11;-1.60;99.90
30134;DHT22;16946;49.984;10.672;2024-01-15T01:36:42;-1.60;99.90
30134;DHT22;16946;49.984;10.672;2024-01-15T01:37:13;-1.60;99.90
30134;DHT22;16946;49.984;10.672;2024-01-15T01:37:44;-1.60;99.90
30134;DHT22;16946;49.984;10.672;2024-01-15T01:38:14;-1.70;99.90
30134;DHT22;16946;49.984;10.672;2024-01-15T01:38:45;-1.70;99.90
30134;DHT22;16946;49.984;10.672;2024-01-15T01:39:16;-1.70;99.90
30134;DHT22;16946;49.984;10.672;2024-01-15T01:39:46;-1.70;99.90
30134;DHT22;16946;49.984;10.672;2024-01-15T01:40:17;-1.70;99.90
30134;DHT22;16946;49.984;10.672;2024-01-15T01:40:48;-1.70;99.90
30134;DHT22;16946;49.984;10.672;2024-01-15T01:41:18;-1.60;99.90
30134;DHT22;16946;49.984;10.672;2024-01-15T01:41:49;-1.70;99.90
30134;DHT22;16946;49.984;10.672;2024-01-15T01:42:19;-1.70;99.90
30134;DHT22;16946;49.984;10.672;2024-01-15T01:42:50;-1.70;99.90
30134;DHT22;16946;49.984;10.672;2024-01-15T01:43:20;-1.70;99.90
30134;DHT22;16946;49.984;10.672;2024-01-15T01:43:51;-1.70;99.90
30134;DHT22;16946;49.984;10.672;2024-01-15T01:44:21;-1.80;99.90
30134;DHT22;16946;49.984;10.672;2024-01-15T01:44:52;-1.80;99.90
30134;DHT22;16946;49.984;10.672;2024-01-15T01:45:22;-1.80;99.90
30134;DHT22;16946;49.984;10.672;2024-01-15T01:45:57;-1.70;99.90
30134;DHT22;16946;49.984;10.672;2024-01-15T01:46:29;-1.70;99.90
30134;DHT22;16946;49.984;10.672;2024-01-15T01:46:59;-1.70;99.90
30134;DHT22;16946;49.984;10.672;2024-01-15T01:47:31;-1.70;99.90
30134;DHT22;16946;49.984;10.672;2024-01-15T01:48:01;-1.80;99.90
30134;DHT22;16946;49.984;10.672;2024-01-15T01:48:32;-1.80;99.90
30134;DHT22;16946;49.984;10.672;2024-01-15T01:49:03;-1.70;99.90
30134;DHT22;16946;49.984;10.672;2024-01-15T01:49:36;-1.70;99.90
30134;DHT22;16946;49.984;10.672;2024-01-15T01:50:07;-1.80;99.90
30134;DHT22;16946;49.984;10.672;2024-01-15T01:50:38;-1.90;99.90
30134;DHT22;16946;49.984;10.672;2024-01-15T01:51:09;-1.90;99.90
30134;DHT22;16946;49.984;10.672;2024-01-15T01:51:41;-1.90;99.90
30134;DHT22;16946;49.984;10.672;2024-01-15T01:52:12;-1.90;99.90
30134;DHT22;16946;49.984;10.672;2024-01-15T01:52:43;-1.90;99.90
30134;DHT22;16946;49.984;10.672;2024-01-15T01:53:14;-1.90;99.90
30134;DHT22;16946;49.984;10.672;2024-01-15T01:53:45;-1.90;99.90
30134;DHT22;16946;49.984;10.672;2024-01-15T01:54:16;-1.80;99.90
30134;DHT22;16946;49.984;10.672;2024-01-15T01:54:47;-1.80;99.90
30134;DHT22;16946;49.984;10.672;2024-01-15T01:55:18;-1.80;99.90
30134;DHT22;16946;49.984;10.672;2024-01-15T01:55:50;-1.70;99.90
30134;DHT22;16946;49.984;10.672;2024-01-15T01:56:20;-1.70;99.90
30134;DHT22;16946;49.984;10.672;2024-01-15T01:56:51;-1.70;99.90
30134;DHT22;16946;49.984;10.672;2024-01-15T01:57:22;-1.70;99.90
30134;DHT22;16946;49.984;10.672;2024-01-15T01:57:54;-1.70;99.90
30134;DHT22;16946;49.984;10.672;2024-01-15T01:58:25;-1.70;99.90
30134;DHT22;16946;49.984;10.672;2024-01-15T01:58:56;-1.70;99.90
30134;DHT22;16946;49.984;10.672;2024-01-15T01:59:27;-1.70;99.90
30134;DHT22;16946;49.984;10.672;2024-01-15T01:59:58;-1.70;99.90
30134;DHT22;16946;49.984;10.672;2024-01-15T02:00:30;-1.70;99.90
30134;DHT22;16946;49.984;10.672;2024-01-15T02:01:02;-1.70;99.90
30134;DHT22;16946;49.984;10.672;2024-01-15T02:01:32;-1.70;99.90
30134;DHT22;16946;49.984;10.672;2024-01-15T02:02:03;-1.70;99.90
30134;DHT22;16946;49.984;10.672;2024-01-15T02:02:34;-1.70;99.90
30134;DHT22;16946;49.984;10.672;2024-01-15T02:03:05;-1.70;99.90
30134;DHT22;16946;49.984;10.672;2024-01-15T02:03:36;-1.70;99.90
30134;DHT22;16946;49.984;10.672;2024-01-15T02:04:06;-1.70;99.90
30134;DHT22;16946;49.984;10.672;2024-01-15T02:04:37;-1.70;99.90
30134;DHT22;16946;49.984;10.672;2024-01-15T02:05:08;-1.60;99.90
30134;DHT22;16946;49.984;10.672;2024-01-15T02:05:40;-1.60;99.90
30134;DHT22;16946;49.984;10.672;2024-01-15T02:06:12;-1.60;99.90
30134;DHT22;16946;49.984;10.672;2024-01-15T02:06:43;-1.60;99.90
30134;DHT22;16946;49.984;10.672;2024-01-15T02:07:14;-1.60;99.90
30134;DHT22;16946;49.984;10.672;2024-01-15T02:07:46;-1.60;99.90
30134;DHT22;16946;49.984;10.672;2024-01-15T02:08:17;-1.50;99.90
30134;DHT22;16946;49.984;10.672;2024-01-15T02:08:48;-1.50;99.90
30134;DHT22;16946;49.984;10.672;2024-01-15T02:09:18;-1.50;99.90
30134;DHT22;16946;49.984;10.672;2024-01-15T02:09:49;-1.50;99.90
30134;DHT22;16946;49.984;10.672;2024-01-15T02:10:20;-1.40;99.90
30134;DHT22;16946;49.984;10.672;2024-01-15T02:10:51;-1.40;99.90
30134;DHT22;16946;49.984;10.672;2024-01-15T02:11:21;-1.40;99.90
30134;DHT22;16946;49.984;10.672;2024-01-15T02:11:52;-1.40;99.90
30134;DHT22;16946;49.984;10.672;2024-01-15T02:12:22;-1.40;99.90
30134;DHT22;16946;49.984;10.672;2024-01-15T02:12:53;-1.40;99.90
30134;DHT22;16946;49.984;10.672;2024-01-15T02:13:23;-1.40;99.90
30134;DHT22;16946;49.984;10.672;2024-01-15T02:13:54;-1.40;99.90
30134;DHT22;16946;49.984;10.672;2024-01-15T02:14:25;-1.50;99.90
30134;DHT22;16946;49.984;10.672;2024-01-15T02:14:56;-1.50;99.90
30134;DHT22;16946;49.984;10.672;2024-01-15T02:15:26;-1.50;99.90
30134;DHT22;16946;49.984;10.672;2024-01-15T02:15:57;-1.60;99.90
30134;DHT22;16946;49.984;10.672;2024-01-15T02:16:27;-1.60;99.90
30134;DHT22;16946;49.984;10.672;2024-01-15T02:16:58;-1.60;99.90
30134;DHT22;16946;49.984;10.672;2024-01-15T02:17:28;-1.70;99.90
30134;DHT22;16946;49.984;10.672;2024-01-15T02:18:01;-1.70;99.90
30134;DHT22;16946;49.984;10.672;2024-01-15T02:18:43;-1.70;99.90
30134;DHT22;16946;49.984;10.672;2024-01-15T02:19:16;-1.70;99.90
30134;DHT22;16946;49.984;10.672;2024-01-15T02:19:47;-1.70;99.90
30134;DHT22;16946;49.984;10.672;2024-01-15T02:20:18;-1.60;99.90
30134;DHT22;16946;49.984;10.672;2024-01-15T02:20:48;-1.60;99.90
30134;DHT22;16946;49.984;10.672;2024-01-15T02:21:19;-1.60;99.90
30134;DHT22;16946;49.984;10.672;2024-01-15T02:21:49;-1.60;99.90
30134;DHT22;16946;49.984;10.672;2024-01-15T02:22:20;-1.60;99.90
30134;DHT22;16946;49.984;10.672;2024-01-15T02:22:50;-1.60;99.90
30134;DHT22;16946;49.984;10.672;2024-01-15T02:23:21;-1.50;99.90
30134;DHT22;16946;49.984;10.672;2024-01-15T02:23:52;-1.50;99.90
30134;DHT22;16946;49.984;10.672;2024-01-15T02:24:22;-1.50;99.90
30134;DHT22;16946;49.984;10.672;2024-01-15T02:24:53;-1.50;99.90
30134;DHT22;16946;49.984;10.672;2024-01-15T02:25:23;-1.50;99.90
30134;DHT22;16946;49.984;10.672;2024-01-15T02:25:54;-1.50;99.90
30134;DHT22;16946;49.984;10.672;2024-01-15T02:26:25;-1.50;99.90
30134;DHT22;16946;49.984;10.672;2024-01-15T02:26:56;-1.60;99.90
30134;DHT22;16946;49.984;10.672;2024-01-15T02:27:26;-1.60;99.90
30134;DHT22;16946;49.984;10.672;2024-01-15T02:27:57;-1.60;99.90
30134;DHT22;16946;49.984;10.672;2024-01-15T02:28:28;-1.60;99.90
30134;DHT22;16946;49.984;10.672;2024-01-15T02:28:58;-1.60;99.90
30134;DHT22;16946;49.984;10.672;2024-01-15T02:29:29;-1.70;99.90
30134;DHT22;16946;49.984;10.672;2024-01-15T02:29:59;-1.60;99.90
30134;DHT22;16946;49.984;10.672;2024-01-15T02:30:31;-1.70;99.90
30134;DHT22;16946;49.984;10.672;2024-01-15T02:31:02;-1.60;99.90
30134;DHT22;16946;49.984;10.672;2024-01-15T02:31:32;-1.60;99.90
30134;DHT22;16946;49.984;10.672;2024-01-15T02:32:06;-1.60;99.90
30134;DHT22;16946;49.984;10.672;2024-01-15T02:32:39;-1.60;99.90
30134;DHT22;16946;49.984;10.672;2024-01-15T02:33:10;-1.70;99.90
30134;DHT22;16946;49.984;10.672;2024-01-15T02:33:42;-1.60;99.90
30134;DHT22;16946;49.984;10.672;2024-01-15T02:34:13;-1.60;99.90
30134;DHT22;16946;49.984;10.672;2024-01-15T02:34:43;-1.60;99.90
30134;DHT22;16946;49.984;10.672;2024-01-15T02:35:14;-1.60;99.90
30134;DHT22;16946;49.984;10.672;2024-01-15T02:35:44;-1.60;99.90
30134;DHT22;16946;49.984;10.672;2024-01-15T02:36:16;-1.60;99.90
30134;DHT22;16946;49.984;10.672;2024-01-15T02:36:47;-1.70;99.90
30134;DHT22;16946;49.984;10.672;2024-01-15T02:37:17;-1.70;99.90
30134;DHT22;16946;49.984;10.672;2024-01-15T02:37:48;-1.70;99.90
30134;DHT22;16946;49.984;10.672;2024-01-15T02:38:18;-1.70;99.90
30134;DHT22;16946;49.984;10.672;2024-01-15T02:38:49;-1.70;99.90
30134;DHT22;16946;49.984;10.672;2024-01-15T02:39:19;-1.80;99.90
30134;DHT22;16946;49.984;10.672;2024-01-15T02:39:50;-1.80;99.90
30134;DHT22;16946;49.984;10.672;2024-01-15T02:40:20;-1.80;99.90
30134;DHT22;16946;49.984;10.672;2024-01-15T02:40:51;-1.80;99.90
30134;DHT22;16946;49.984;10.672;2024-01-15T02:41:21;-1.70;99.90
30134;DHT22;16946;49.984;10.672;2024-01-15T02:41:52;-1.70;99.90
30134;DHT22;16946;49.984;10.672;2024-01-15T02:42:22;-1.70;99.90
30134;DHT22;16946;49.984;10.672;2024-01-15T02:42:53;-1.70;99.90
30134;DHT22;16946;49.984;10.672;2024-01-15T02:43:23;-1.70;99.90
30134;DHT22;16946;49.984;10.672;2024-01-15T02:43:54;-1.70;99.90
30134;DHT22;16946;49.984;10.672;2024-01-15T02:44:24;-1.60;99.90
30134;DHT22;16946;49.984;10.672;2024-01-15T02:44:55;-1.60;99.90
30134;DHT22;16946;49.984;10.672;2024-01-15T02:45:25;-1.60;99.90
30134;DHT22;16946;49.984;10.672;2024-01-15T02:45:56;-1.60;99.90
30134;DHT22;16946;49.984;10.672;2024-01-15T02:46:26;-1.60;99.90
30134;DHT22;16946;49.984;10.672;2024-01-15T02:46:57;-1.60;99.90
30134;DHT22;16946;49.984;10.672;2024-01-15T02:47:27;-1.60;99.90
30134;DHT22;16946;49.984;10.672;2024-01-15T02:47:58;-1.60;99.90
30134;DHT22;16946;49.984;10.672;2024-01-15T02:48:29;-1.60;99.90
30134;DHT22;16946;49.984;10.672;2024-01-15T02:48:59;-1.60;99.90
30134;DHT22;16946;49.984;10.672;2024-01-15T02:49:30;-1.60;99.90
30134;DHT22;16946;49.984;10.672;2024-01-15T02:50:01;-1.70;99.90
30134;DHT22;16946;49.984;10.672;2024-01-15T02:50:32;-1.70;99.90
30134;DHT22;16946;49.984;10.672;2024-01-15T02:51:02;-1.70;99.90
30134;DHT22;16946;49.984;10.672;2024-01-15T02:51:33;-1.80;99.90
30134;DHT22;16946;49.984;10.672;2024-01-15T02:52:03;-1.70;99.90
30134;DHT22;16946;49.984;10.672;2024-01-15T02:52:34;-1.70;99.90
30134;DHT22;16946;49.984;10.672;2024-01-15T02:53:05;-1.70;99.90
30134;DHT22;16946;49.984;10.672;2024-01-15T02:53:36;-1.70;99.90
30134;DHT22;16946;49.984;10.672;2024-01-15T02:54:07;-1.70;99.90
30134;DHT22;16946;49.984;10.672;2024-01-15T02:54:38;-1.80;99.90
30134;DHT22;16946;49.984;10.672;2024-01-15T02:55:08;-1.80;99.90
30134;DHT22;16946;49.984;10.672;2024-01-15T02:55:39;-1.80;99.90
30134;DHT22;16946;49.984;10.672;2024-01-15T02:56:09;-1.80;99.90
30134;DHT22;16946;49.984;10.672;2024-01-15T02:56:40;-1.70;99.90
30134;DHT22;16946;49.984;10.672;2024-01-15T02:57:11;-1.80;99.90
30134;DHT22;16946;49.984;10.672;2024-01-15T02:57:41;-1.80;99.90
30134;DHT22;16946;49.984;10.672;2024-01-15T02:58:11;-1.80;99.90
30134;DHT22;16946;49.984;10.672;2024-01-15T02:58:42;-1.80;99.90
30134;DHT22;16946;49.984;10.672;2024-01-15T02:59:13;-1.70;99.90
30134;DHT22;16946;49.984;10.672;2024-01-15T02:59:43;-1.70;99.90
30134;DHT22;16946;49.984;10.672;2024-01-15T03:00:14;-1.70;99.90
30134;DHT22;16946;49.984;10.672;2024-01-15T03:00:45;-1.60;99.90
30134;DHT22;16946;49.984;10.672;2024-01-15T03:01:19;-1.70;99.90
30134;DHT22;16946;49.984;10.672;2024-01-15T03:01:50;-1.60;99.90
30134;DHT22;16946;49.984;10.672;2024-01-15T03:02:20;-1.60;99.90
30134;DHT22;16946;49.984;10.672;2024-01-15T03:02:51;-1.60;99.90
30134;DHT22;16946;49.984;10.672;2024-01-15T03:03:21;-1.50;99.90
30134;DHT22;16946;49.984;10.672;2024-01-15T03:03:52;-1.60;99.90
30134;DHT22;16946;49.984;10.672;2024-01-15T03:04:22;-1.60;99.90
30134;DHT22;16946;49.984;10.672;2024-01-15T03:04:53;-1.50;99.90
30134;DHT22;16946;49.984;10.672;2024-01-15T03:05:23;-1.50;99.90
30134;DHT22;16946;49.984;10.672;2024-01-15T03:05:54;-1.40;99.90
30134;DHT22;16946;49.984;10.672;2024-01-15T03:06:25;-1.40;99.90
30134;DHT22;16946;49.984;10.672;2024-01-15T03:06:55;-1.40;99.90
30134;DHT22;16946;49.984;10.672;2024-01-15T03:07:27;-1.50;99.90
30134;DHT22;16946;49.984;10.672;2024-01-15T03:07:58;-1.40;99.90
30134;DHT22;16946;49.984;10.672;2024-01-15T03:08:28;-1.40;99.90
30134;DHT22;16946;49.984;10.672;2024-01-15T03:08:59;-1.30;99.90
30134;DHT22;16946;49.984;10.672;2024-01-15T03:09:30;-1.40;99.90
30134;DHT22;16946;49.984;10.672;2024-01-15T03:10:00;-1.40;99.90
30134;DHT22;16946;49.984;10.672;2024-01-15T03:10:31;-1.40;99.90
30134;DHT22;16946;49.984;10.672;2024-01-15T03:11:01;-1.50;99.90